createdAt,value
2023-01-29T00:01:55.364Z,100.00
2023-01-29T00:04:22.152Z,100.00
2023-01-29T00:06:48.707Z,100.00
2023-01-29T00:09:15.514Z,100.00
2023-01-29T00:11:42.932Z,100.00
2023-01-29T00:14:09.613Z,100.00
2023-01-29T00:16:36.427Z,100.00
2023-01-29T00:19:03.842Z,100.00
2023-01-29T00:21:31.993Z,99.57
2023-01-29T00:23:59.459Z,99.19
2023-01-29T00:26:27.400Z,99.88
2023-01-29T00:28:54.479Z,99.22
2023-01-29T00:31:25.309Z,99.67
2023-01-29T00:33:53.078Z,99.53
2023-01-29T00:36:21.561Z,100.00
2023-01-29T00:38:54.956Z,100.00
2023-01-29T00:41:46.377Z,99.94
2023-01-29T00:44:32.318Z,100.00
2023-01-29T00:46:59.503Z,99.95
2023-01-29T00:49:26.252Z,100.00
2023-01-29T00:52:25.367Z,100.00
2023-01-29T00:54:53.804Z,100.00
2023-01-29T00:57:21.041Z,100.00
2023-01-29T00:59:47.919Z,100.00
2023-01-29T01:02:33.359Z,100.00
2023-01-29T01:05:02.462Z,100.00
2023-01-29T01:07:30.386Z,100.00
2023-01-29T01:10:15.943Z,99.78
2023-01-29T01:12:42.765Z,99.22
2023-01-29T01:15:10.233Z,99.05
2023-01-29T01:17:36.943Z,98.88
2023-01-29T01:20:04.070Z,98.50
2023-01-29T01:22:32.250Z,98.10
2023-01-29T01:24:59.410Z,97.71
2023-01-29T01:27:26.372Z,98.11
2023-01-29T01:29:53.254Z,97.80
2023-01-29T01:32:20.050Z,97.46
2023-01-29T01:34:46.580Z,97.45
2023-01-29T01:37:13.272Z,97.84
2023-01-29T01:39:39.964Z,97.43
2023-01-29T01:42:12.480Z,97.03
2023-01-29T01:44:51.483Z,97.32
2023-01-29T01:47:23.717Z,96.67
2023-01-29T01:49:51.334Z,96.76
2023-01-29T01:52:21.872Z,96.41
2023-01-29T01:54:50.790Z,95.98
2023-01-29T01:57:25.284Z,96.25
2023-01-29T01:59:59.857Z,96.00
2023-01-29T02:02:46.209Z,96.30
2023-01-29T02:05:32.824Z,96.40
2023-01-29T02:08:18.517Z,95.71
2023-01-29T02:10:47.178Z,95.67
2023-01-29T02:13:16.635Z,95.78
2023-01-29T02:15:46.856Z,95.41
2023-01-29T02:18:15.642Z,95.32
2023-01-29T02:20:57.215Z,95.44
2023-01-29T02:23:43.843Z,95.13
2023-01-29T02:26:47.391Z,94.97
2023-01-29T02:29:39.568Z,94.12
2023-01-29T02:32:28.053Z,94.99
2023-01-29T02:35:22.637Z,94.82
2023-01-29T02:38:01.330Z,95.19
2023-01-29T02:40:41.052Z,95.19
2023-01-29T02:43:26.814Z,95.26
2023-01-29T02:46:03.259Z,94.62
2023-01-29T02:48:40.377Z,94.99
2023-01-29T02:51:16.721Z,95.14
2023-01-29T02:53:51.985Z,95.12
2023-01-29T02:56:35.903Z,95.23
2023-01-29T02:59:11.698Z,95.27
2023-01-29T03:02:00.219Z,95.33
2023-01-29T03:04:33.240Z,94.98
2023-01-29T03:07:22.448Z,95.22
2023-01-29T03:09:53.389Z,95.43
2023-01-29T03:12:35.017Z,95.65
2023-01-29T03:15:12.703Z,94.97
2023-01-29T03:17:55.527Z,95.06
2023-01-29T03:20:40.335Z,94.83
2023-01-29T03:23:14.581Z,94.75
2023-01-29T03:26:02.538Z,94.92
2023-01-29T03:28:51.354Z,94.86
2023-01-29T03:31:37.561Z,94.96
2023-01-29T03:34:16.413Z,95.09
2023-01-29T03:36:56.105Z,94.65
2023-01-29T03:39:25.624Z,94.68
2023-01-29T03:41:56.285Z,94.62
2023-01-29T03:44:36.089Z,95.15
2023-01-29T03:47:34.478Z,94.80
2023-01-29T03:50:09.199Z,94.73
2023-01-29T03:52:54.174Z,94.52
2023-01-29T03:55:29.152Z,94.85
2023-01-29T03:58:10.501Z,94.37
2023-01-29T04:00:45.039Z,94.45
2023-01-29T04:03:44.360Z,94.48
2023-01-29T04:06:22.287Z,94.51
2023-01-29T04:09:05.883Z,94.15
2023-01-29T04:11:38.393Z,94.49
2023-01-29T04:14:07.303Z,94.09
2023-01-29T04:16:41.219Z,94.48
2023-01-29T04:19:16.551Z,94.56
2023-01-29T04:21:45.307Z,94.37
2023-01-29T04:24:13.521Z,94.70
2023-01-29T04:26:54.921Z,94.35
2023-01-29T04:29:45.773Z,94.31
2023-01-29T04:32:13.500Z,95.02
2023-01-29T04:35:06.272Z,94.35
2023-01-29T04:37:39.225Z,94.59
2023-01-29T04:40:28.209Z,94.87
2023-01-29T04:43:08.069Z,95.12
2023-01-29T04:45:53.344Z,95.17
2023-01-29T04:48:49.477Z,95.02
2023-01-29T04:51:31.826Z,95.68
2023-01-29T04:54:17.416Z,94.62
2023-01-29T04:56:53.135Z,94.70
2023-01-29T04:59:36.696Z,95.37
2023-01-29T05:02:04.302Z,94.75
2023-01-29T05:04:34.234Z,94.73
2023-01-29T05:07:13.182Z,94.98
2023-01-29T05:09:42.914Z,94.66
2023-01-29T05:12:13.068Z,94.88
2023-01-29T05:14:44.589Z,94.55
2023-01-29T05:17:20.518Z,94.55
2023-01-29T05:19:48.125Z,94.53
2023-01-29T05:22:18.055Z,94.77
2023-01-29T05:24:45.114Z,94.64
2023-01-29T05:27:44.062Z,95.12
2023-01-29T05:30:11.373Z,94.45
2023-01-29T05:32:39.670Z,94.54
2023-01-29T05:35:06.938Z,94.29
2023-01-29T05:37:33.519Z,94.89
2023-01-29T05:40:00.138Z,94.21
2023-01-29T05:42:26.707Z,94.53
2023-01-29T05:44:53.726Z,94.61
2023-01-29T05:47:21.135Z,94.37
2023-01-29T05:49:47.803Z,93.50
2023-01-29T05:52:14.398Z,94.19
2023-01-29T05:54:41.153Z,93.85
2023-01-29T05:57:07.698Z,93.81
2023-01-29T05:59:34.372Z,93.91
2023-01-29T06:02:00.983Z,93.60
2023-01-29T06:04:27.716Z,93.54
2023-01-29T06:06:54.357Z,93.48
2023-01-29T06:09:21.047Z,93.20
2023-01-29T06:11:47.614Z,93.94
2023-01-29T06:14:14.218Z,93.99
2023-01-29T06:16:40.829Z,93.60
2023-01-29T06:19:07.622Z,93.41
2023-01-29T06:21:34.161Z,93.54
2023-01-29T06:24:01.121Z,92.66
2023-01-29T06:26:27.917Z,92.84
2023-01-29T06:28:54.602Z,92.45
2023-01-29T06:31:36.815Z,92.85
2023-01-29T06:34:04.824Z,93.25
2023-01-29T06:36:31.445Z,92.96
2023-01-29T06:38:58.224Z,93.00
2023-01-29T06:41:25.772Z,93.18
2023-01-29T06:43:52.730Z,92.77
2023-01-29T06:46:19.870Z,93.36
2023-01-29T06:48:46.682Z,92.92
2023-01-29T06:51:13.249Z,92.81
2023-01-29T06:53:40.920Z,92.28
2023-01-29T06:56:08.007Z,92.64
2023-01-29T06:58:38.100Z,92.69
2023-01-29T07:01:06.870Z,92.77
2023-01-29T07:03:33.964Z,92.78
2023-01-29T07:06:01.079Z,93.70
2023-01-29T07:08:28.456Z,93.76
2023-01-29T07:11:01.691Z,93.90
2023-01-29T07:13:28.492Z,93.47
2023-01-29T07:15:58.539Z,93.03
2023-01-29T07:18:25.297Z,93.25
2023-01-29T07:20:52.210Z,93.01
2023-01-29T07:23:18.939Z,92.90
2023-01-29T07:25:45.905Z,93.13
2023-01-29T07:28:12.460Z,92.98
2023-01-29T07:30:38.973Z,93.71
2023-01-29T07:33:08.243Z,93.21
2023-01-29T07:35:40.334Z,93.11
2023-01-29T07:38:08.552Z,92.92
2023-01-29T07:40:35.592Z,93.48
2023-01-29T07:43:05.167Z,92.88
2023-01-29T07:45:37.696Z,91.48
2023-01-29T07:48:07.351Z,91.51
2023-01-29T07:50:35.401Z,91.81
2023-01-29T07:53:02.155Z,91.76
2023-01-29T07:55:28.742Z,92.35
2023-01-29T07:57:56.829Z,92.53
2023-01-29T08:00:23.642Z,91.77
2023-01-29T08:02:50.534Z,91.14
2023-01-29T08:05:17.413Z,91.82
2023-01-29T08:07:49.154Z,91.15
2023-01-29T08:10:18.381Z,91.59
2023-01-29T08:12:45.145Z,91.75
2023-01-29T08:15:11.964Z,91.24
2023-01-29T08:17:49.269Z,91.39
2023-01-29T08:20:24.202Z,91.06
2023-01-29T08:22:59.794Z,91.10
2023-01-29T08:25:27.192Z,89.92
2023-01-29T08:27:54.768Z,89.18
2023-01-29T08:30:21.546Z,88.73
2023-01-29T08:32:50.230Z,88.71
2023-01-29T08:35:17.199Z,89.15
2023-01-29T08:37:44.157Z,88.94
2023-01-29T08:40:13.400Z,89.38
2023-01-29T08:42:41.500Z,88.13
2023-01-29T08:45:08.817Z,88.48
2023-01-29T08:47:35.367Z,88.79
2023-01-29T08:50:02.483Z,88.68
2023-01-29T08:52:29.132Z,89.46
2023-01-29T08:54:55.844Z,89.14
2023-01-29T08:57:22.625Z,88.31
2023-01-29T08:59:49.857Z,89.03
2023-01-29T09:02:16.467Z,88.63
2023-01-29T09:04:43.230Z,87.91
2023-01-29T09:07:09.860Z,88.30
2023-01-29T09:09:37.537Z,87.69
2023-01-29T09:12:04.612Z,87.49
2023-01-29T09:14:32.892Z,88.12
2023-01-29T09:16:59.451Z,88.06
2023-01-29T09:19:26.270Z,87.61
2023-01-29T09:21:52.858Z,86.93
2023-01-29T09:24:19.484Z,87.89
2023-01-29T09:26:46.185Z,87.13
2023-01-29T09:29:12.954Z,86.71
2023-01-29T09:31:39.631Z,86.21
2023-01-29T09:34:06.278Z,87.58
2023-01-29T09:36:35.112Z,87.09
2023-01-29T09:39:01.678Z,87.02
2023-01-29T09:41:31.261Z,86.18
2023-01-29T09:44:04.069Z,86.99
2023-01-29T09:46:30.611Z,86.95
2023-01-29T09:49:23.499Z,87.15
2023-01-29T09:51:59.236Z,85.68
2023-01-29T09:54:32.922Z,86.36
2023-01-29T09:57:00.693Z,85.81
2023-01-29T09:59:31.044Z,85.46
2023-01-29T10:02:06.612Z,86.32
2023-01-29T10:05:07.551Z,86.19
2023-01-29T10:07:55.769Z,85.53
2023-01-29T10:10:48.309Z,85.45
2023-01-29T10:13:27.165Z,84.84
2023-01-29T10:16:04.826Z,85.22
2023-01-29T10:19:12.898Z,86.24
2023-01-29T10:21:57.631Z,86.59
2023-01-29T10:24:52.783Z,84.56
2023-01-29T10:27:20.120Z,85.59
2023-01-29T10:29:50.990Z,84.58
2023-01-29T10:32:20.535Z,83.79
2023-01-29T10:35:03.734Z,85.18
2023-01-29T10:37:40.732Z,84.80
2023-01-29T10:40:39.893Z,84.15
2023-01-29T10:43:14.677Z,84.43
2023-01-29T10:45:58.145Z,84.19
2023-01-29T10:48:31.624Z,83.78
2023-01-29T10:51:25.269Z,83.29
2023-01-29T10:54:30.030Z,83.97
2023-01-29T10:57:15.346Z,84.40
2023-01-29T10:59:56.595Z,83.41
2023-01-29T11:02:23.228Z,82.75
2023-01-29T11:04:49.961Z,84.28
2023-01-29T11:07:19.862Z,83.66
2023-01-29T11:10:01.294Z,84.07
2023-01-29T11:12:31.220Z,83.63
2023-01-29T11:15:18.400Z,82.45
2023-01-29T11:18:06.230Z,82.37
2023-01-29T11:20:34.642Z,80.58
2023-01-29T11:23:01.361Z,80.02
2023-01-29T11:25:29.925Z,83.34
2023-01-29T11:27:58.571Z,81.67
2023-01-29T11:30:35.601Z,80.88
2023-01-29T11:33:05.393Z,80.54
2023-01-29T11:35:33.332Z,80.95
2023-01-29T11:38:27.306Z,80.85
2023-01-29T11:41:05.785Z,82.18
2023-01-29T11:43:33.261Z,80.91
2023-01-29T11:46:13.437Z,81.59
2023-01-29T11:48:48.046Z,80.46
2023-01-29T11:51:28.426Z,82.49
2023-01-29T11:53:58.966Z,81.11
2023-01-29T11:56:45.888Z,81.73
2023-01-29T11:59:39.499Z,81.47
2023-01-29T12:02:20.527Z,79.43
2023-01-29T12:04:48.198Z,81.34
2023-01-29T12:07:17.686Z,81.81
2023-01-29T12:09:58.773Z,80.62
2023-01-29T12:12:41.677Z,80.28
2023-01-29T12:15:22.466Z,80.00
2023-01-29T12:17:57.160Z,80.94
2023-01-29T12:20:30.866Z,81.19
2023-01-29T12:23:04.617Z,79.10
2023-01-29T12:25:44.974Z,80.54
2023-01-29T12:28:42.840Z,81.27
2023-01-29T12:31:29.093Z,80.09
2023-01-29T12:34:10.862Z,80.69
2023-01-29T12:36:53.245Z,82.15
2023-01-29T12:39:22.943Z,82.51
2023-01-29T12:41:59.152Z,81.86
2023-01-29T12:44:42.271Z,82.04
2023-01-29T12:47:18.282Z,82.30
2023-01-29T12:49:51.184Z,82.15
2023-01-29T12:52:44.132Z,80.56
2023-01-29T12:55:20.375Z,80.31
2023-01-29T12:57:58.687Z,82.33
2023-01-29T13:00:38.426Z,81.03
2023-01-29T13:03:34.830Z,82.60
2023-01-29T13:06:16.780Z,81.48
2023-01-29T13:08:51.391Z,82.32
2023-01-29T13:11:40.280Z,82.06
2023-01-29T13:14:28.836Z,82.24
2023-01-29T13:17:07.858Z,82.25
2023-01-29T13:19:42.484Z,83.29
2023-01-29T13:22:20.118Z,80.75
2023-01-29T13:24:58.758Z,82.69
2023-01-29T13:27:33.064Z,84.51
2023-01-29T13:30:00.242Z,83.24
2023-01-29T13:32:29.039Z,83.23
2023-01-29T13:34:59.798Z,82.03
2023-01-29T13:37:35.390Z,84.31
2023-01-29T13:40:05.581Z,82.41
2023-01-29T13:42:32.093Z,81.17
2023-01-29T13:45:03.131Z,82.68
2023-01-29T13:47:33.570Z,81.93
2023-01-29T13:50:10.359Z,83.58
2023-01-29T13:52:43.286Z,82.85
2023-01-29T13:55:37.229Z,81.54
2023-01-29T13:58:07.881Z,81.76
2023-01-29T14:00:34.433Z,82.94
2023-01-29T14:03:01.204Z,84.06
2023-01-29T14:05:30.849Z,84.11
2023-01-29T14:08:14.032Z,83.16
2023-01-29T14:10:42.855Z,82.74
2023-01-29T14:13:18.864Z,81.97
2023-01-29T14:16:06.783Z,81.63
2023-01-29T14:18:36.001Z,82.24
2023-01-29T14:21:17.557Z,81.91
2023-01-29T14:23:47.120Z,82.08
2023-01-29T14:26:55.436Z,83.47
2023-01-29T14:29:34.867Z,81.60
2023-01-29T14:32:05.938Z,83.46
2023-01-29T14:34:56.755Z,81.43
2023-01-29T14:37:33.790Z,81.43
2023-01-29T14:40:12.453Z,83.46
2023-01-29T14:42:47.856Z,81.62
2023-01-29T14:45:36.840Z,82.01
2023-01-29T14:48:09.508Z,82.29
2023-01-29T14:50:36.627Z,81.48
2023-01-29T14:53:16.673Z,82.35
2023-01-29T14:55:48.295Z,82.66
2023-01-29T14:58:24.367Z,81.71
2023-01-29T15:00:54.493Z,82.68
2023-01-29T15:03:43.065Z,83.70
2023-01-29T15:06:17.263Z,83.15
2023-01-29T15:08:50.920Z,84.58
2023-01-29T15:11:35.716Z,82.79
2023-01-29T15:14:24.120Z,83.30
2023-01-29T15:17:32.655Z,81.46
2023-01-29T15:19:59.534Z,81.74
2023-01-29T15:22:28.974Z,81.78
2023-01-29T15:25:41.463Z,81.88
2023-01-29T15:28:11.101Z,82.58
2023-01-29T15:30:38.048Z,82.29
2023-01-29T15:33:10.499Z,81.23
2023-01-29T15:35:39.661Z,81.61
2023-01-29T15:38:16.254Z,81.91
2023-01-29T15:40:58.673Z,82.70
2023-01-29T15:43:29.671Z,83.08
2023-01-29T15:46:12.425Z,81.67
2023-01-29T15:48:42.751Z,83.09
2023-01-29T15:51:15.436Z,82.58
2023-01-29T15:53:55.163Z,82.74
2023-01-29T15:56:37.366Z,82.55
2023-01-29T15:59:09.678Z,83.89
2023-01-29T16:01:36.736Z,82.32
2023-01-29T16:04:04.381Z,82.76
2023-01-29T16:06:38.935Z,82.61
2023-01-29T16:09:07.637Z,83.14
2023-01-29T16:11:35.680Z,82.49
2023-01-29T16:14:05.127Z,83.24
2023-01-29T16:16:32.001Z,84.27
2023-01-29T16:19:00.888Z,83.71
2023-01-29T16:21:42.073Z,83.75
2023-01-29T16:24:20.083Z,85.19
2023-01-29T16:26:53.444Z,85.35
2023-01-29T16:29:36.751Z,83.44
2023-01-29T16:32:05.180Z,83.69
2023-01-29T16:34:37.319Z,83.22
2023-01-29T16:37:18.206Z,84.00
2023-01-29T16:39:47.943Z,83.22
2023-01-29T16:42:20.108Z,84.96
2023-01-29T16:44:53.707Z,84.93
2023-01-29T16:47:40.523Z,84.01
2023-01-29T16:50:22.394Z,85.07
2023-01-29T16:53:01.356Z,86.26
2023-01-29T16:55:35.506Z,84.68
2023-01-29T16:58:22.866Z,85.02
2023-01-29T17:00:53.798Z,85.54
2023-01-29T17:03:23.211Z,86.16
2023-01-29T17:05:50.968Z,86.25
2023-01-29T17:08:29.295Z,86.72
2023-01-29T17:10:56.620Z,85.81
2023-01-29T17:13:46.673Z,84.90
2023-01-29T17:16:22.532Z,84.90
2023-01-29T17:18:49.888Z,85.96
2023-01-29T17:21:16.482Z,86.40
2023-01-29T17:23:43.096Z,85.05
2023-01-29T17:26:12.746Z,87.72
2023-01-29T17:28:42.675Z,86.48
2023-01-29T17:31:09.789Z,86.07
2023-01-29T17:33:41.962Z,85.71
2023-01-29T17:36:16.592Z,86.72
2023-01-29T17:38:43.738Z,87.56
2023-01-29T17:41:26.927Z,87.15
2023-01-29T17:43:53.773Z,85.91
2023-01-29T17:46:22.689Z,87.66
2023-01-29T17:48:54.261Z,86.87
2023-01-29T17:51:23.418Z,88.00
2023-01-29T17:53:51.182Z,90.17
2023-01-29T17:56:29.043Z,90.96
2023-01-29T17:58:56.297Z,89.96
2023-01-29T18:01:23.253Z,90.14
2023-01-29T18:03:54.664Z,92.18
2023-01-29T18:06:28.379Z,91.49
2023-01-29T18:08:56.519Z,91.71
2023-01-29T18:11:23.514Z,91.59
2023-01-29T18:13:50.367Z,92.80
2023-01-29T18:16:22.234Z,91.27
2023-01-29T18:18:51.985Z,91.53
2023-01-29T18:21:18.932Z,93.60
2023-01-29T18:23:45.837Z,92.29
2023-01-29T18:26:15.713Z,91.79
2023-01-29T18:28:43.647Z,92.23
2023-01-29T18:31:12.987Z,92.38
2023-01-29T18:33:40.686Z,92.75
2023-01-29T18:36:08.130Z,92.43
2023-01-29T18:38:35.034Z,92.98
2023-01-29T18:41:12.421Z,92.93
2023-01-29T18:43:40.682Z,93.91
2023-01-29T18:46:08.240Z,93.67
2023-01-29T18:48:41.625Z,93.11
2023-01-29T18:51:09.265Z,93.96
2023-01-29T18:53:39.774Z,92.45
2023-01-29T18:56:07.990Z,94.79
2023-01-29T18:58:36.427Z,93.95
2023-01-29T19:01:10.890Z,94.61
2023-01-29T19:03:42.767Z,93.63
2023-01-29T19:06:11.152Z,94.40
2023-01-29T19:08:47.878Z,93.53
2023-01-29T19:11:32.855Z,93.87
2023-01-29T19:14:02.195Z,93.29
2023-01-29T19:16:32.139Z,93.97
2023-01-29T19:18:59.236Z,94.11
2023-01-29T19:21:28.548Z,93.21
2023-01-29T19:23:55.895Z,93.87
2023-01-29T19:26:23.313Z,93.40
2023-01-29T19:28:51.013Z,94.24
2023-01-29T19:31:17.684Z,94.19
2023-01-29T19:33:44.431Z,93.58
2023-01-29T19:36:12.782Z,93.87
2023-01-29T19:38:43.184Z,94.48
2023-01-29T19:41:10.230Z,96.48
2023-01-29T19:43:40.559Z,96.51
2023-01-29T19:46:07.691Z,95.52
2023-01-29T19:48:34.305Z,95.88
2023-01-29T19:51:04.375Z,95.95
2023-01-29T19:53:31.474Z,96.54
2023-01-29T19:56:04.945Z,96.80
2023-01-29T19:58:32.945Z,95.91
2023-01-29T20:01:24.256Z,96.07
2023-01-29T20:03:51.951Z,96.09
2023-01-29T20:06:22.568Z,97.39
2023-01-29T20:08:52.404Z,96.47
2023-01-29T20:11:21.833Z,97.40
2023-01-29T20:13:51.174Z,97.48
2023-01-29T20:16:18.960Z,98.66
2023-01-29T20:18:45.659Z,97.65
2023-01-29T20:21:15.932Z,97.86
2023-01-29T20:23:44.915Z,97.92
2023-01-29T20:26:15.452Z,98.13
2023-01-29T20:28:43.313Z,97.30
2023-01-29T20:31:10.175Z,97.89
2023-01-29T20:33:39.371Z,98.20
2023-01-29T20:36:08.547Z,98.03
2023-01-29T20:38:35.941Z,97.68
2023-01-29T20:41:07.831Z,99.05
2023-01-29T20:43:35.627Z,98.44
2023-01-29T20:46:02.760Z,99.31
2023-01-29T20:48:34.272Z,97.39
2023-01-29T20:51:09.841Z,98.78
2023-01-29T20:53:37.175Z,99.18
2023-01-29T20:56:05.179Z,99.06
2023-01-29T20:58:32.454Z,99.34
2023-01-29T21:00:59.788Z,99.33
2023-01-29T21:03:26.567Z,99.94
2023-01-29T21:05:54.373Z,99.53
2023-01-29T21:08:22.317Z,99.03
2023-01-29T21:10:50.122Z,99.65
2023-01-29T21:13:17.016Z,98.94
2023-01-29T21:15:44.270Z,99.23
2023-01-29T21:18:11.302Z,99.19
2023-01-29T21:20:37.901Z,100.00
2023-01-29T21:23:06.977Z,100.00
2023-01-29T21:25:33.960Z,100.00
2023-01-29T21:28:00.828Z,100.00
2023-01-29T21:30:27.600Z,100.00
2023-01-29T21:32:54.322Z,100.00
2023-01-29T21:35:23.413Z,100.00
2023-01-29T21:37:50.232Z,100.00
2023-01-29T21:40:17.979Z,100.00
2023-01-29T21:43:04.010Z,100.00
2023-01-29T21:45:30.789Z,100.00
2023-01-29T21:47:57.484Z,100.00
2023-01-29T21:50:24.228Z,100.00
2023-01-29T21:52:51.269Z,100.00
2023-01-29T21:55:18.245Z,100.00
2023-01-29T21:57:46.768Z,100.00
2023-01-29T22:00:14.004Z,100.00
2023-01-29T22:02:41.727Z,100.00
2023-01-29T22:05:18.707Z,100.00
2023-01-29T22:07:48.528Z,100.00
2023-01-29T22:10:17.167Z,100.00
2023-01-29T22:12:44.686Z,100.00
2023-01-29T22:15:12.232Z,100.00
2023-01-29T22:17:42.391Z,100.00
2023-01-29T22:20:14.189Z,100.00
2023-01-29T22:22:41.011Z,100.00
2023-01-29T22:25:09.007Z,100.00
2023-01-29T22:27:35.619Z,100.00
2023-01-29T22:30:02.352Z,100.00
2023-01-29T22:32:31.258Z,100.00
2023-01-29T22:34:57.890Z,100.00
2023-01-29T22:37:24.438Z,100.00
2023-01-29T22:39:51.206Z,100.00
2023-01-29T22:42:20.036Z,100.00
2023-01-29T22:44:49.488Z,100.00
2023-01-29T22:47:16.430Z,100.00
2023-01-29T22:49:45.492Z,100.00
2023-01-29T22:52:12.416Z,100.00
2023-01-29T22:54:41.567Z,100.00
2023-01-29T22:57:13.365Z,100.00
2023-01-29T22:59:40.559Z,100.00
2023-01-29T23:02:08.641Z,100.00
2023-01-29T23:04:35.666Z,100.00
2023-01-29T23:07:02.361Z,100.00
2023-01-29T23:09:30.481Z,100.00
2023-01-29T23:11:57.096Z,100.00
2023-01-29T23:14:23.743Z,100.00
2023-01-29T23:16:50.702Z,100.00
2023-01-29T23:19:17.391Z,100.00
2023-01-29T23:21:43.994Z,100.00
2023-01-29T23:24:10.930Z,100.00
2023-01-29T23:26:56.171Z,100.00
2023-01-29T23:29:24.367Z,100.00
2023-01-29T23:31:51.992Z,100.00
2023-01-29T23:34:18.732Z,100.00
2023-01-29T23:36:45.370Z,100.00
2023-01-29T23:39:12.017Z,100.00
2023-01-29T23:41:38.699Z,100.00
2023-01-29T23:44:05.469Z,100.00
2023-01-29T23:46:32.356Z,100.00
2023-01-29T23:48:59.199Z,100.00
2023-01-29T23:51:25.920Z,100.00
2023-01-29T23:53:52.891Z,100.00
2023-01-29T23:56:20.159Z,100.00
2023-01-29T23:58:48.076Z,100.00
